Time,TemperatureF,DewpointF,PressureIn,WindDirection,WindDirectionDegrees,WindSpeedMPH,WindSpeedGustMPH,Humidity,HourlyPrecipIn,Conditions,Clouds,dailyrainin,SoftwareType,DateUTC
2013-05-29 00:02:00,76.5,69.1,30.00,ENE,60,1.8,7.8,78,0.00,,,0.00,WSDL version 420,2013-05-29 04:02:00,
2013-05-29 00:07:00,76.3,68.7,30.00,ENE,65,3.3,7.2,77,0.00,,,0.00,WSDL version 420,2013-05-29 04:07:00,
2013-05-29 00:12:00,76.4,68.7,30.00,NE,45,3.2,7.2,77,0.00,,,0.00,WSDL version 420,2013-05-29 04:12:00,
2013-05-29 00:17:00,76.5,68.7,30.00,East,83,2.6,6.0,77,0.00,,,0.00,WSDL version 420,2013-05-29 04:17:00,
2013-05-29 00:22:00,76.3,68.5,30.00,ENE,74,2.6,5.8,77,0.00,,,0.00,WSDL version 420,2013-05-29 04:22:00,
2013-05-29 00:27:00,76.3,68.5,30.00,ENE,77,2.0,4.3,77,0.00,,,0.00,WSDL version 420,2013-05-29 04:27:00,
2013-05-29 00:32:00,76.3,68.5,30.00,NE,51,2.9,4.3,77,0.00,,,0.00,WSDL version 420,2013-05-29 04:32:00,
2013-05-29 00:37:00,76.3,68.6,30.00,ENE,77,2.5,4.0,78,0.00,,,0.00,WSDL version 420,2013-05-29 04:37:00,
2013-05-29 00:42:00,76.3,69.0,30.00,East,80,3.1,4.7,78,0.00,,,0.00,WSDL version 420,2013-05-29 04:42:00,
2013-05-29 00:47:00,76.5,69.1,30.00,ENE,63,1.7,4.7,78,0.00,,,0.00,WSDL version 420,2013-05-29 04:47:00,
2013-05-29 00:52:00,76.4,69.1,30.00,NNE,19,0.7,4.7,78,0.00,,,0.00,WSDL version 420,2013-05-29 04:52:00,
2013-05-29 00:57:00,76.3,68.9,30.00,SSE,152,1.5,4.3,78,0.00,,,0.00,WSDL version 420,2013-05-29 04:57:00,
2013-05-29 01:02:00,76.3,68.9,30.00,East,90,1.3,4.3,78,0.00,,,0.00,WSDL version 420,2013-05-29 05:02:00,
2013-05-29 01:07:00,76.3,69.0,30.00,NE,53,1.0,3.8,79,0.00,,,0.00,WSDL version 420,2013-05-29 05:07:00,
2013-05-29 01:12:00,76.1,69.2,29.97,North,9,2.5,5.6,79,0.00,,,0.00,WSDL version 420,2013-05-29 05:12:00,
2013-05-29 01:17:00,75.7,69.0,29.97,East,98,1.2,5.6,80,0.00,,,0.00,WSDL version 420,2013-05-29 05:17:00,
2013-05-29 01:22:00,75.3,68.9,29.97,ESE,120,2.7,3.6,81,0.00,,,0.00,WSDL version 420,2013-05-29 05:22:00,
2013-05-29 01:27:00,75.2,69.4,29.97,ENE,60,2.6,4.3,83,0.00,,,0.00,WSDL version 420,2013-05-29 05:27:00,
2013-05-29 01:32:00,75.2,69.8,29.97,East,86,2.4,4.3,83,0.00,,,0.00,WSDL version 420,2013-05-29 05:32:00,
2013-05-29 01:37:00,75.2,70.0,29.97,ENE,63,1.5,4.0,84,0.00,,,0.00,WSDL version 420,2013-05-29 05:37:00,
2013-05-29 01:42:00,75.2,70.2,29.97,ENE,71,2.0,3.8,84,0.00,,,0.00,WSDL version 420,2013-05-29 05:42:00,
2013-05-29 01:47:00,75.3,70.1,29.94,NE,45,5.1,7.2,82,0.04,,,0.04,WSDL version 420,2013-05-29 05:47:00,
2013-05-29 01:52:00,74.4,67.4,29.94,ENE,73,4.6,9.6,78,0.04,,,0.04,WSDL version 420,2013-05-29 05:52:00,
2013-05-29 01:57:00,74.1,67.7,29.94,ENE,68,2.5,9.6,82,0.04,,,0.04,WSDL version 420,2013-05-29 05:57:00,
2013-05-29 02:02:00,74.1,68.5,29.97,ENE,68,1.7,4.7,83,0.04,,,0.04,WSDL version 420,2013-05-29 06:02:00,
2013-05-29 02:07:00,74.1,68.9,29.97,NNE,23,0.4,2.9,84,0.04,,,0.04,WSDL version 420,2013-05-29 06:07:00,
2013-05-29 02:12:00,74.1,69.1,29.97,ENE,64,0.3,2.5,84,0.04,,,0.04,WSDL version 420,2013-05-29 06:12:00,
2013-05-29 02:17:00,74.1,69.5,29.97,ENE,65,0.0,2.5,86,0.04,,,0.04,WSDL version 420,2013-05-29 06:17:00,
2013-05-29 02:22:00,74.1,69.5,29.97,WSW,251,0.0,2.5,86,0.04,,,0.04,WSDL version 420,2013-05-29 06:22:00,
2013-05-29 02:27:00,74.1,70.0,29.97,East,79,6.9,9.8,88,0.04,,,0.04,WSDL version 420,2013-05-29 06:27:00,
2013-05-29 02:32:00,73.9,69.7,29.97,SW,214,2.9,9.8,87,0.12,,,0.12,WSDL version 420,2013-05-29 06:32:00,
2013-05-29 02:37:00,73.4,68.8,29.97,NNE,23,2.7,5.4,86,0.17,,,0.17,WSDL version 420,2013-05-29 06:37:00,
2013-05-29 02:42:00,72.8,68.2,29.97,NNE,23,0.9,4.3,86,0.21,,,0.21,WSDL version 420,2013-05-29 06:42:00,
2013-05-29 02:47:00,72.6,68.0,29.94,NW,326,2.7,4.3,86,0.17,,,0.21,WSDL version 420,2013-05-29 06:47:00,
2013-05-29 02:52:00,72.5,68.2,29.94,ENE,59,2.0,3.8,87,0.17,,,0.21,WSDL version 420,2013-05-29 06:52:00,
2013-05-29 02:57:00,72.5,68.3,29.97,NE,56,0.0,3.1,87,0.17,,,0.21,WSDL version 420,2013-05-29 06:57:00,
2013-05-29 03:02:00,72.5,68.6,29.97,ENE,77,0.0,2.5,88,0.17,,,0.21,WSDL version 420,2013-05-29 07:02:00,
2013-05-29 03:07:00,72.5,68.7,29.97,ENE,75,0.4,2.2,88,0.17,,,0.21,WSDL version 420,2013-05-29 07:07:00,
2013-05-29 03:12:00,72.6,68.9,29.97,East,90,0.0,2.2,89,0.17,,,0.21,WSDL version 420,2013-05-29 07:12:00,
2013-05-29 03:17:00,72.7,69.2,29.97,SE,135,0.0,0.9,89,0.17,,,0.21,WSDL version 420,2013-05-29 07:17:00,
2013-05-29 03:22:00,72.7,69.2,29.97,SE,135,0.0,0.0,89,0.17,,,0.21,WSDL version 420,2013-05-29 07:22:00,
2013-05-29 03:27:00,72.6,69.1,29.97,SE,135,0.0,0.0,89,0.17,,,0.21,WSDL version 420,2013-05-29 07:27:00,
2013-05-29 03:32:00,72.7,69.3,29.97,SE,135,0.0,0.0,90,0.09,,,0.21,WSDL version 420,2013-05-29 07:32:00,
2013-05-29 03:42:00,72.7,69.6,29.94,SSE,158,0.0,0.0,90,0.04,,,0.25,WSDL version 420,2013-05-29 07:42:00,
2013-05-29 03:47:00,72.7,69.6,29.94,SW,231,0.0,0.0,90,0.04,,,0.25,WSDL version 420,2013-05-29 07:47:00,
2013-05-29 03:52:00,72.7,69.7,29.94,WSW,244,0.0,0.0,90,0.04,,,0.25,WSDL version 420,2013-05-29 07:52:00,
2013-05-29 03:57:00,72.7,69.8,29.94,West,270,0.0,0.0,91,0.04,,,0.25,WSDL version 420,2013-05-29 07:57:00,
2013-05-29 04:02:00,72.7,69.9,29.97,West,270,0.0,0.0,91,0.04,,,0.25,WSDL version 420,2013-05-29 08:02:00,
2013-05-29 04:07:00,72.7,69.9,29.97,North,360,0.0,0.0,91,0.04,,,0.25,WSDL version 420,2013-05-29 08:07:00,
2013-05-29 04:12:00,72.7,69.9,29.94,NW,326,0.0,1.3,91,0.04,,,0.25,WSDL version 420,2013-05-29 08:12:00,
2013-05-29 04:17:00,72.7,69.9,29.94,SSE,158,0.0,2.2,91,0.08,,,0.29,WSDL version 420,2013-05-29 08:17:00,
2013-05-29 04:22:00,72.7,69.9,29.94,NE,53,1.0,2.2,91,0.08,,,0.29,WSDL version 420,2013-05-29 08:22:00,
2013-05-29 04:27:00,72.8,70.0,29.94,South,180,1.6,2.5,91,0.21,,,0.42,WSDL version 420,2013-05-29 08:27:00,
2013-05-29 04:32:00,72.9,70.5,29.94,NE,39,3.1,4.0,92,0.33,,,0.54,WSDL version 420,2013-05-29 08:32:00,
2013-05-29 04:37:00,73.0,70.6,29.94,SSE,150,0.5,4.0,92,0.37,,,0.58,WSDL version 420,2013-05-29 08:37:00,
2013-05-29 04:42:00,73.2,70.8,29.94,SW,225,0.0,0.0,92,0.37,,,0.62,WSDL version 420,2013-05-29 08:42:00,
2013-05-29 04:47:00,73.2,70.8,29.94,ENE,60,2.2,2.7,92,0.50,,,0.75,WSDL version 420,2013-05-29 08:47:00,
2013-05-29 04:52:00,73.1,70.7,29.94,South,180,1.1,2.7,92,0.54,,,0.79,WSDL version 420,2013-05-29 08:52:00,
2013-05-29 04:57:00,72.8,70.4,29.94,North,360,1.1,2.5,92,0.62,,,0.87,WSDL version 420,2013-05-29 08:57:00,
2013-05-29 05:02:00,72.5,69.8,29.97,South,180,4.0,4.0,91,0.70,,,0.95,WSDL version 420,2013-05-29 09:02:00,
2013-05-29 05:07:00,72.3,69.6,29.97,SE,135,1.1,2.0,91,0.70,,,0.95,WSDL version 420,2013-05-29 09:07:00,
2013-05-29 05:12:00,72.1,69.4,29.97,South,180,1.3,1.6,91,0.75,,,1.00,WSDL version 420,2013-05-29 09:12:00,
2013-05-29 05:17:00,72.1,69.4,29.97,ESE,113,2.2,2.9,91,0.79,,,1.04,WSDL version 420,2013-05-29 09:17:00,
2013-05-29 05:22:00,72.1,69.4,29.97,North,0,0.0,4.3,91,0.83,,,1.12,WSDL version 420,2013-05-29 09:22:00,
2013-05-29 05:27:00,72.2,69.8,29.97,SE,135,1.3,4.3,92,0.78,,,1.20,WSDL version 420,2013-05-29 09:27:00,
2013-05-29 05:32:00,72.3,69.9,29.94,South,180,0.0,4.3,92,0.71,,,1.25,WSDL version 420,2013-05-29 09:32:00,
2013-05-29 05:37:00,72.3,69.9,29.94,South,180,0.0,2.5,92,0.91,,,1.49,WSDL version 420,2013-05-29 09:37:00,
2013-05-29 05:42:00,72.1,69.7,29.97,South,180,5.1,7.8,92,1.17,,,1.79,WSDL version 420,2013-05-29 09:42:00,
2013-05-29 05:47:00,71.8,69.4,29.97,South,180,3.6,7.8,92,1.16,,,1.91,WSDL version 420,2013-05-29 09:47:00,
2013-05-29 05:52:00,71.8,69.4,29.97,South,180,6.0,6.3,92,1.20,,,1.99,WSDL version 420,2013-05-29 09:52:00,
2013-05-29 05:57:00,71.7,69.4,29.97,SSW,203,2.9,6.3,92,1.33,,,2.20,WSDL version 420,2013-05-29 09:57:00,
2013-05-29 06:02:00,71.5,69.1,29.97,SE,124,1.5,2.5,92,1.34,,,2.29,WSDL version 420,2013-05-29 10:02:00,
2013-05-29 06:07:00,71.4,69.0,29.97,NE,45,0.0,2.5,92,1.46,,,2.41,WSDL version 420,2013-05-29 10:07:00,
2013-05-29 06:12:00,71.1,68.7,29.97,SW,225,1.3,1.6,92,1.62,,,2.62,WSDL version 420,2013-05-29 10:12:00,
2013-05-29 06:17:00,71.1,68.7,29.97,SSE,158,0.0,1.6,92,1.70,,,2.74,WSDL version 420,2013-05-29 10:17:00,
2013-05-29 06:22:00,71.0,68.6,29.97,SSE,158,0.0,0.0,92,1.79,,,2.91,WSDL version 420,2013-05-29 10:22:00,
2013-05-29 06:27:00,71.1,69.0,29.97,SSE,158,0.0,0.0,93,1.92,,,3.12,WSDL version 420,2013-05-29 10:27:00,
2013-05-29 06:32:00,71.1,69.0,29.97,North,0,0.0,0.0,93,1.99,,,3.24,WSDL version 420,2013-05-29 10:32:00,
2013-05-29 06:37:00,70.9,68.9,29.97,East,90,2.9,4.9,93,1.91,,,3.24,WSDL version 420,2013-05-29 10:37:00,
2013-05-29 06:42:00,70.9,68.9,29.97,East,90,2.9,4.9,93,1.58,,,3.28,WSDL version 420,2013-05-29 10:42:00,
2013-05-29 06:47:00,71.1,69.4,29.97,East,90,2.9,4.9,94,1.58,,,3.45,WSDL version 420,2013-05-29 10:47:00,
2013-05-29 06:52:00,71.1,69.4,29.97,ENE,68,1.6,4.9,94,1.50,,,3.49,WSDL version 420,2013-05-29 10:52:00,
2013-05-29 06:57:00,71.1,69.4,29.97,ENE,68,2.6,4.9,94,1.33,,,3.53,WSDL version 420,2013-05-29 10:57:00,
2013-05-29 07:02:00,71.1,69.2,29.97,ENE,68,3.6,3.6,93,1.33,,,3.62,WSDL version 420,2013-05-29 11:02:00,
2013-05-29 07:07:00,71.1,69.0,29.97,ENE,68,3.6,3.6,93,1.29,,,3.70,WSDL version 420,2013-05-29 11:07:00,
2013-05-29 07:12:00,71.1,69.0,30.00,ENE,68,3.8,4.3,93,1.08,,,3.70,WSDL version 420,2013-05-29 11:12:00,
2013-05-29 07:17:00,71.1,69.0,30.00,ENE,68,4.0,4.3,93,1.00,,,3.74,WSDL version 420,2013-05-29 11:17:00,
2013-05-29 07:22:00,71.0,68.9,30.00,ENE,68,4.0,4.3,93,0.87,,,3.78,WSDL version 420,2013-05-29 11:22:00,
2013-05-29 07:27:00,70.9,68.9,30.00,ENE,68,4.0,4.3,93,0.74,,,3.86,WSDL version 420,2013-05-29 11:27:00,
2013-05-29 07:32:00,70.9,68.9,30.00,North,0,0.0,4.3,93,0.66,,,3.90,WSDL version 420,2013-05-29 11:32:00,
2013-05-29 07:37:00,70.9,68.9,30.00,North,-999,-999.0,-999.0,93,0.66,,,3.90,WSDL version 420,2013-05-29 11:37:00,
2013-05-29 07:42:00,70.9,68.9,30.00,North,-999,-999.0,-999.0,93,0.67,,,3.95,WSDL version 420,2013-05-29 11:42:00,
2013-05-29 07:47:00,71.0,69.3,30.00,North,-999,-999.0,-999.0,94,0.50,,,3.95,WSDL version 420,2013-05-29 11:47:00,
2013-05-29 07:52:00,71.1,69.4,30.00,North,-999,-999.0,-999.0,94,0.50,,,3.99,WSDL version 420,2013-05-29 11:52:00,
2013-05-29 07:57:00,71.2,69.5,30.00,North,-999,-999.0,-999.0,94,0.50,,,4.03,WSDL version 420,2013-05-29 11:57:00,
2013-05-29 08:02:00,71.2,69.6,30.00,North,-999,-999.0,-999.0,94,0.41,,,4.03,WSDL version 420,2013-05-29 12:02:00,
2013-05-29 08:07:00,71.4,69.7,30.00,SSE,158,0.9,2.2,94,0.37,,,4.07,WSDL version 420,2013-05-29 12:07:00,
2013-05-29 08:12:00,71.5,69.8,30.00,East,90,2.3,2.7,94,0.41,,,4.11,WSDL version 420,2013-05-29 12:12:00,
2013-05-29 08:17:00,71.7,70.0,30.00,East,101,3.0,4.0,94,0.37,,,4.11,WSDL version 420,2013-05-29 12:17:00,
2013-05-29 08:22:00,71.9,70.2,30.00,ENE,68,1.3,4.0,94,0.33,,,4.11,WSDL version 420,2013-05-29 12:22:00,
2013-05-29 08:27:00,72.0,70.3,30.03,East,90,2.1,2.2,94,0.29,,,4.11,WSDL version 420,2013-05-29 12:27:00,
2013-05-29 08:32:00,72.2,70.5,30.03,East,101,0.0,2.2,94,0.21,,,4.11,WSDL version 420,2013-05-29 12:32:00,
2013-05-29 08:37:00,72.4,70.7,30.03,North,360,0.0,0.9,94,0.21,,,4.11,WSDL version 420,2013-05-29 12:37:00,
2013-05-29 08:42:00,72.5,70.9,30.03,SE,141,2.0,2.9,94,0.16,,,4.11,WSDL version 420,2013-05-29 12:42:00,
2013-05-29 08:47:00,72.7,70.7,30.03,ENE,60,2.9,3.6,93,0.16,,,4.11,WSDL version 420,2013-05-29 12:47:00,
2013-05-29 08:52:00,72.5,70.3,30.03,NW,315,2.0,3.6,92,0.12,,,4.11,WSDL version 420,2013-05-29 12:52:00,
2013-05-29 08:57:00,72.2,69.8,30.00,East,90,1.3,2.7,92,0.13,,,4.16,WSDL version 420,2013-05-29 12:57:00,
2013-05-29 09:02:00,72.1,69.8,30.00,East,90,1.3,1.6,92,0.16,,,4.19,WSDL version 420,2013-05-29 13:02:00,
2013-05-29 09:07:00,72.1,69.8,30.00,East,90,1.3,0.0,92,0.12,,,4.19,WSDL version 420,2013-05-29 13:07:00,
2013-05-29 09:12:00,72.1,69.8,30.03,North,0,0.0,0.0,92,0.08,,,4.19,WSDL version 420,2013-05-29 13:12:00,
2013-05-29 09:17:00,72.3,69.9,30.03,South,180,0.0,0.0,92,0.08,,,4.19,WSDL version 420,2013-05-29 13:17:00,
2013-05-29 09:22:00,72.5,70.1,30.03,South,180,0.0,0.0,92,0.08,,,4.19,WSDL version 420,2013-05-29 13:22:00,
2013-05-29 09:27:00,72.3,69.9,30.03,South,180,0.0,0.0,92,0.08,,,4.19,WSDL version 420,2013-05-29 13:27:00,
2013-05-29 09:32:00,72.5,70.1,30.03,North,0,0.0,0.0,92,0.08,,,4.19,WSDL version 420,2013-05-29 13:32:00,
2013-05-29 09:37:00,72.5,70.1,30.03,North,0,0.0,0.0,92,0.08,,,4.19,WSDL version 420,2013-05-29 13:37:00,
2013-05-29 09:42:00,72.6,70.2,30.03,North,-999,-999.0,-999.0,92,0.13,,,4.24,WSDL version 420,2013-05-29 13:42:00,
2013-05-29 09:47:00,72.9,70.3,30.03,North,-999,-999.0,-999.0,91,0.13,,,4.24,WSDL version 420,2013-05-29 13:47:00,
2013-05-29 09:52:00,72.8,70.0,30.03,North,-999,-999.0,-999.0,91,0.13,,,4.24,WSDL version 420,2013-05-29 13:52:00,
2013-05-29 09:57:00,72.7,69.9,30.03,North,-999,-999.0,-999.0,91,0.08,,,4.24,WSDL version 420,2013-05-29 13:57:00,
2013-05-29 10:02:00,72.7,69.9,30.03,East,90,3.0,3.0,91,0.16,,,4.32,WSDL version 420,2013-05-29 14:02:00,
2013-05-29 10:07:00,72.8,70.0,30.03,East,86,0.6,3.4,91,0.17,,,4.36,WSDL version 420,2013-05-29 14:07:00,
2013-05-29 10:12:00,73.0,70.6,30.03,SE,145,0.0,3.4,92,0.17,,,4.36,WSDL version 420,2013-05-29 14:12:00,
2013-05-29 10:17:00,73.1,70.7,30.03,NE,45,0.0,3.4,92,0.17,,,4.36,WSDL version 420,2013-05-29 14:17:00,
2013-05-29 10:22:00,73.3,70.9,30.03,NNE,23,0.0,1.1,92,0.17,,,4.36,WSDL version 420,2013-05-29 14:22:00,
2013-05-29 10:27:00,73.5,71.1,30.03,ENE,73,0.0,0.0,92,0.21,,,4.40,WSDL version 420,2013-05-29 14:27:00,
2013-05-29 10:32:00,73.7,71.3,30.03,SSE,158,0.0,0.0,92,0.21,,,4.40,WSDL version 420,2013-05-29 14:32:00,
2013-05-29 10:37:00,73.8,71.4,30.03,NNE,31,0.0,0.0,92,0.25,,,4.44,WSDL version 420,2013-05-29 14:37:00,
2013-05-29 10:42:00,73.8,71.4,30.03,East,100,0.0,2.5,92,0.20,,,4.44,WSDL version 420,2013-05-29 14:42:00,
2013-05-29 10:47:00,73.9,71.5,30.03,NE,35,0.0,2.5,92,0.20,,,4.44,WSDL version 420,2013-05-29 14:47:00,
2013-05-29 10:52:00,74.2,71.8,30.03,North,11,0.0,1.1,92,0.20,,,4.44,WSDL version 420,2013-05-29 14:52:00,
2013-05-29 10:57:00,74.6,72.2,30.03,NE,45,0.0,0.0,92,0.20,,,4.44,WSDL version 420,2013-05-29 14:57:00,
2013-05-29 11:02:00,74.9,72.5,30.03,NE,45,0.0,0.0,92,0.12,,,4.44,WSDL version 420,2013-05-29 15:02:00,
2013-05-29 11:07:00,75.2,72.8,30.03,NE,34,0.0,0.0,92,0.08,,,4.44,WSDL version 420,2013-05-29 15:07:00,
2013-05-29 11:12:00,75.6,73.2,30.03,North,360,0.0,0.0,92,0.08,,,4.44,WSDL version 420,2013-05-29 15:12:00,
2013-05-29 11:17:00,75.9,73.5,30.03,North,360,0.0,0.0,92,0.08,,,4.44,WSDL version 420,2013-05-29 15:17:00,
2013-05-29 11:22:00,76.1,73.7,30.03,North,360,0.0,0.0,92,0.08,,,4.44,WSDL version 420,2013-05-29 15:22:00,
2013-05-29 11:27:00,76.3,73.7,30.03,North,360,0.0,0.0,92,0.04,,,4.44,WSDL version 420,2013-05-29 15:27:00,
2013-05-29 11:32:00,76.8,74.3,30.03,North,360,0.0,0.0,92,0.04,,,4.44,WSDL version 420,2013-05-29 15:32:00,
2013-05-29 11:37:00,76.9,74.3,30.03,SSW,209,0.2,2.5,91,0.00,,,4.44,WSDL version 420,2013-05-29 15:37:00,
2013-05-29 11:42:00,76.8,74.0,30.03,South,180,1.7,2.9,91,0.00,,,4.44,WSDL version 420,2013-05-29 15:42:00,
2013-05-29 11:47:00,76.6,73.5,30.03,SE,138,0.0,2.9,90,0.05,,,4.49,WSDL version 420,2013-05-29 15:47:00,
2013-05-29 11:52:00,76.6,73.5,30.03,NE,45,0.4,2.0,90,0.05,,,4.49,WSDL version 420,2013-05-29 15:52:00,
2013-05-29 11:57:00,76.9,73.8,30.03,NE,45,0.0,2.0,90,0.05,,,4.49,WSDL version 420,2013-05-29 15:57:00,
2013-05-29 12:02:00,77.2,74.1,30.03,ESE,116,0.0,2.2,90,0.05,,,4.49,WSDL version 420,2013-05-29 16:02:00,
2013-05-29 12:07:00,77.4,74.2,30.03,East,87,0.0,2.2,90,0.05,,,4.49,WSDL version 420,2013-05-29 16:07:00,
2013-05-29 12:12:00,77.4,74.2,30.03,ESE,116,0.0,2.5,90,0.05,,,4.49,WSDL version 420,2013-05-29 16:12:00,
2013-05-29 12:17:00,77.3,73.7,30.03,ENE,75,0.0,2.5,89,0.05,,,4.49,WSDL version 420,2013-05-29 16:17:00,
2013-05-29 12:22:00,77.0,73.5,30.03,NE,55,1.5,2.7,89,0.05,,,4.49,WSDL version 420,2013-05-29 16:22:00,
2013-05-29 12:27:00,76.8,73.2,30.03,ENE,64,3.0,4.3,88,0.09,,,4.53,WSDL version 420,2013-05-29 16:27:00,
2013-05-29 12:32:00,76.8,72.9,30.03,ENE,71,3.0,4.7,88,0.09,,,4.53,WSDL version 420,2013-05-29 16:32:00,
2013-05-29 12:37:00,76.8,72.9,30.03,East,96,2.6,5.4,88,0.09,,,4.53,WSDL version 420,2013-05-29 16:37:00,
2013-05-29 12:42:00,76.9,72.7,30.03,ENE,61,2.8,6.3,87,0.09,,,4.53,WSDL version 420,2013-05-29 16:42:00,
2013-05-29 12:47:00,77.0,71.9,30.03,ENE,64,3.8,6.3,83,0.04,,,4.53,WSDL version 420,2013-05-29 16:47:00,
2013-05-29 12:52:00,77.0,71.6,30.03,ENE,74,3.1,5.8,83,0.04,,,4.53,WSDL version 420,2013-05-29 16:52:00,
2013-05-29 12:57:00,76.9,71.4,30.03,ENE,65,3.0,6.3,83,0.04,,,4.53,WSDL version 420,2013-05-29 16:57:00,
2013-05-29 13:02:00,77.0,71.6,30.03,ENE,64,2.2,6.3,83,0.04,,,4.53,WSDL version 420,2013-05-29 17:02:00,
2013-05-29 13:07:00,77.1,71.7,30.03,East,84,2.5,4.0,83,0.04,,,4.53,WSDL version 420,2013-05-29 17:07:00,
2013-05-29 13:12:00,77.3,72.2,30.03,ENE,77,2.5,3.8,84,0.04,,,4.53,WSDL version 420,2013-05-29 17:12:00,
2013-05-29 13:17:00,77.4,72.3,30.03,NE,55,2.1,4.0,83,0.04,,,4.53,WSDL version 420,2013-05-29 17:17:00,
2013-05-29 13:22:00,77.5,72.1,30.03,NE,38,2.0,4.0,83,0.04,,,4.53,WSDL version 420,2013-05-29 17:22:00,
2013-05-29 13:27:00,77.7,71.0,30.03,NE,45,3.2,6.0,78,0.00,,,4.53,WSDL version 420,2013-05-29 17:27:00,
2013-05-29 13:32:00,77.9,70.3,30.03,East,79,2.6,6.0,77,0.00,,,4.53,WSDL version 420,2013-05-29 17:32:00,
2013-05-29 13:37:00,78.0,70.4,30.03,ENE,68,2.3,4.3,77,0.00,,,4.53,WSDL version 420,2013-05-29 17:37:00,
2013-05-29 13:42:00,78.1,70.1,30.03,ENE,73,2.9,5.6,76,0.00,,,4.53,WSDL version 420,2013-05-29 17:42:00,
2013-05-29 13:47:00,78.3,70.0,30.03,ENE,68,2.2,5.8,75,0.00,,,4.53,WSDL version 420,2013-05-29 17:47:00,
2013-05-29 13:52:00,78.7,70.0,30.03,NNE,26,1.6,5.8,74,0.00,,,4.53,WSDL version 420,2013-05-29 17:52:00,
2013-05-29 13:57:00,78.8,70.0,30.03,East,86,2.3,5.4,74,0.00,,,4.53,WSDL version 420,2013-05-29 17:57:00,
2013-05-29 14:02:00,79.0,69.5,30.00,SE,127,3.2,6.5,72,0.00,,,4.53,WSDL version 420,2013-05-29 18:02:00,
2013-05-29 14:07:00,79.1,69.0,30.00,ENE,62,2.0,6.5,71,0.00,,,4.53,WSDL version 420,2013-05-29 18:07:00,
2013-05-29 14:12:00,79.2,68.7,30.03,East,101,2.6,6.3,70,0.00,,,4.53,WSDL version 420,2013-05-29 18:12:00,
2013-05-29 14:17:00,79.3,68.6,30.03,NE,51,2.6,5.8,70,0.00,,,4.53,WSDL version 420,2013-05-29 18:17:00,
2013-05-29 14:22:00,79.4,68.3,30.03,East,86,2.7,5.8,69,0.00,,,4.53,WSDL version 420,2013-05-29 18:22:00,
2013-05-29 14:27:00,79.6,68.4,30.03,East,80,2.7,4.9,68,0.00,,,4.53,WSDL version 420,2013-05-29 18:27:00,
2013-05-29 14:32:00,79.9,68.2,30.00,NE,45,2.2,4.9,68,0.00,,,4.53,WSDL version 420,2013-05-29 18:32:00,
2013-05-29 14:37:00,80.0,68.5,30.00,NNW,347,3.0,5.4,68,0.00,,,4.53,WSDL version 420,2013-05-29 18:37:00,
2013-05-29 14:42:00,79.0,66.3,30.03,East,84,4.9,11.9,64,0.00,,,4.53,WSDL version 420,2013-05-29 18:42:00,
2013-05-29 14:47:00,77.6,64.8,30.03,NE,53,4.3,11.9,65,0.00,,,4.53,WSDL version 420,2013-05-29 18:47:00,
2013-05-29 14:52:00,76.7,64.5,30.03,East,101,3.7,12.5,66,0.00,,,4.53,WSDL version 420,2013-05-29 18:52:00,
2013-05-29 15:02:00,76.1,65.7,30.03,NE,53,3.3,7.2,71,0.00,,,4.53,WSDL version 420,2013-05-29 19:02:00,
2013-05-29 15:07:00,75.9,66.5,30.03,ESE,113,2.5,5.8,74,0.00,,,4.53,WSDL version 420,2013-05-29 19:07:00,
2013-05-29 15:12:00,75.8,67.2,30.03,ESE,110,3.8,6.9,76,0.00,,,4.53,WSDL version 420,2013-05-29 19:12:00,
2013-05-29 15:17:00,75.9,67.8,30.00,NE,51,2.2,6.9,76,0.00,,,4.53,WSDL version 420,2013-05-29 19:17:00,
2013-05-29 15:22:00,76.5,68.5,30.00,North,350,1.7,4.7,77,0.00,,,4.53,WSDL version 420,2013-05-29 19:22:00,
2013-05-29 15:27:00,77.2,68.8,29.97,ENE,74,3.2,5.6,74,0.00,,,4.53,WSDL version 420,2013-05-29 19:27:00,
2013-05-29 15:32:00,78.1,69.7,29.97,East,84,2.8,5.6,75,0.00,,,4.53,WSDL version 420,2013-05-29 19:32:00,
2013-05-29 15:37:00,78.4,69.1,29.97,NE,49,4.0,6.5,72,0.00,,,4.53,WSDL version 420,2013-05-29 19:37:00,
2013-05-29 15:42:00,78.8,69.3,29.97,East,101,2.3,6.5,72,0.00,,,4.53,WSDL version 420,2013-05-29 19:42:00,
2013-05-29 15:47:00,79.0,68.5,29.97,East,96,3.0,8.5,70,0.00,,,4.53,WSDL version 420,2013-05-29 19:47:00,
2013-05-29 15:52:00,80.0,69.7,29.97,East,90,2.4,8.5,72,0.00,,,4.53,WSDL version 420,2013-05-29 19:52:00,
2013-05-29 15:57:00,80.9,70.6,29.97,ESE,105,2.7,5.6,70,0.00,,,4.53,WSDL version 420,2013-05-29 19:57:00,
2013-05-29 16:02:00,81.1,69.6,29.94,ESE,113,3.4,5.8,67,0.00,,,4.53,WSDL version 420,2013-05-29 20:02:00,
2013-05-29 16:07:00,81.4,69.5,29.94,NE,51,3.1,5.8,67,0.00,,,4.53,WSDL version 420,2013-05-29 20:07:00,
2013-05-29 16:12:00,81.3,69.0,29.97,ENE,61,4.1,8.1,67,0.00,,,4.53,WSDL version 420,2013-05-29 20:12:00,
2013-05-29 16:17:00,82.1,70.2,29.97,ENE,61,2.8,8.1,67,0.00,,,4.53,WSDL version 420,2013-05-29 20:17:00,
2013-05-29 16:22:00,82.6,70.5,29.97,East,96,4.3,7.6,66,0.00,,,4.53,WSDL version 420,2013-05-29 20:22:00,
2013-05-29 16:27:00,82.5,70.0,29.97,NE,48,3.7,7.6,66,0.00,,,4.53,WSDL version 420,2013-05-29 20:27:00,
2013-05-29 16:32:00,82.0,69.6,29.97,ENE,63,3.8,7.4,66,0.00,,,4.53,WSDL version 420,2013-05-29 20:32:00,
2013-05-29 16:37:00,82.3,70.2,29.97,East,101,3.1,7.4,67,0.00,,,4.53,WSDL version 420,2013-05-29 20:37:00,
2013-05-29 16:42:00,82.4,70.1,29.94,ENE,58,2.6,5.6,66,0.00,,,4.53,WSDL version 420,2013-05-29 20:42:00,
2013-05-29 16:47:00,81.2,69.2,29.94,ESE,109,5.6,10.3,68,0.04,,,4.57,WSDL version 420,2013-05-29 20:47:00,
2013-05-29 16:52:00,78.9,67.4,29.94,South,184,2.4,10.3,68,0.04,,,4.57,WSDL version 420,2013-05-29 20:52:00,
2013-05-29 16:57:00,77.8,65.8,29.97,ESE,109,2.3,6.0,66,0.04,,,4.57,WSDL version 420,2013-05-29 20:57:00,
2013-05-29 17:02:00,77.1,65.4,29.97,East,96,2.0,5.6,68,0.04,,,4.57,WSDL version 420,2013-05-29 21:02:00,
2013-05-29 17:07:00,77.1,65.9,29.97,ESE,120,1.3,4.0,69,0.04,,,4.57,WSDL version 420,2013-05-29 21:07:00,
2013-05-29 17:12:00,77.0,66.4,29.97,East,80,2.0,4.0,71,0.04,,,4.57,WSDL version 420,2013-05-29 21:12:00,
2013-05-29 17:17:00,77.0,67.3,29.97,East,84,2.1,3.8,72,0.04,,,4.57,WSDL version 420,2013-05-29 21:17:00,
2013-05-29 17:22:00,77.2,68.2,29.97,NE,45,1.8,3.8,74,0.04,,,4.57,WSDL version 420,2013-05-29 21:22:00,
2013-05-29 17:27:00,77.6,69.0,29.97,ENE,68,1.5,6.3,75,0.04,,,4.57,WSDL version 420,2013-05-29 21:27:00,
2013-05-29 17:32:00,77.9,69.5,29.97,SE,143,1.4,6.3,76,0.04,,,4.57,WSDL version 420,2013-05-29 21:32:00,
2013-05-29 17:37:00,78.3,70.1,29.97,ENE,64,0.2,3.1,76,0.04,,,4.57,WSDL version 420,2013-05-29 21:37:00,
2013-05-29 17:42:00,78.6,70.4,29.97,South,177,0.0,3.4,76,0.04,,,4.57,WSDL version 420,2013-05-29 21:42:00,
2013-05-29 17:47:00,79.0,70.8,29.97,East,88,2.1,3.4,76,0.00,,,4.57,WSDL version 420,2013-05-29 21:47:00,
2013-05-29 17:52:00,79.3,71.1,29.97,ENE,64,2.7,3.8,76,0.00,,,4.57,WSDL version 420,2013-05-29 21:52:00,
2013-05-29 17:57:00,79.5,71.1,29.97,ENE,62,3.1,5.4,75,0.00,,,4.57,WSDL version 420,2013-05-29 21:57:00,
2013-05-29 18:02:00,79.4,70.8,29.97,East,80,3.4,7.6,75,0.00,,,4.57,WSDL version 420,2013-05-29 22:02:00,
2013-05-29 18:07:00,79.5,70.9,29.97,East,86,3.1,7.6,75,0.00,,,4.57,WSDL version 420,2013-05-29 22:07:00,
2013-05-29 18:12:00,79.7,71.1,29.97,SE,129,3.3,7.6,75,0.00,,,4.57,WSDL version 420,2013-05-29 22:12:00,
2013-05-29 18:22:00,80.7,72.0,29.97,SE,146,1.5,5.6,75,0.00,,,4.57,WSDL version 420,2013-05-29 22:22:00,
2013-05-29 18:27:00,80.5,71.6,29.97,SSE,165,4.2,8.5,74,0.00,,,4.57,WSDL version 420,2013-05-29 22:27:00,
2013-05-29 18:32:00,78.9,68.2,29.97,South,180,2.2,8.5,70,0.00,,,4.57,WSDL version 420,2013-05-29 22:32:00,
2013-05-29 18:37:00,78.1,67.5,29.97,ENE,68,2.6,5.6,70,0.00,,,4.57,WSDL version 420,2013-05-29 22:37:00,
2013-05-29 18:42:00,77.0,67.2,29.97,SSE,150,1.9,5.6,72,0.00,,,4.57,WSDL version 420,2013-05-29 22:42:00,
2013-05-29 18:47:00,76.9,67.8,29.97,South,188,0.0,3.1,74,0.00,,,4.57,WSDL version 420,2013-05-29 22:47:00,
2013-05-29 18:52:00,76.8,67.9,29.97,East,101,2.0,3.1,74,0.00,,,4.57,WSDL version 420,2013-05-29 22:52:00,
2013-05-29 18:57:00,76.3,68.1,29.97,NNW,340,1.4,4.9,76,0.00,,,4.57,WSDL version 420,2013-05-29 22:57:00,
2013-05-29 19:02:00,76.1,68.1,29.97,East,79,1.4,4.9,77,0.00,,,4.57,WSDL version 420,2013-05-29 23:02:00,
2013-05-29 19:07:00,76.1,68.3,29.97,South,191,1.1,3.6,77,0.00,,,4.57,WSDL version 420,2013-05-29 23:07:00,
2013-05-29 19:12:00,75.7,68.5,29.97,ENE,71,1.2,3.6,79,0.00,,,4.57,WSDL version 420,2013-05-29 23:12:00,
2013-05-29 19:17:00,75.6,68.6,29.97,South,176,1.8,3.4,79,0.04,,,4.61,WSDL version 420,2013-05-29 23:17:00,
2013-05-29 19:22:00,75.6,68.8,29.97,ESE,108,0.4,2.5,80,0.04,,,4.61,WSDL version 420,2013-05-29 23:22:00,
2013-05-29 19:27:00,75.4,68.8,29.97,South,184,0.0,2.5,80,0.04,,,4.61,WSDL version 420,2013-05-29 23:27:00,
2013-05-29 19:32:00,75.4,69.1,29.97,SSE,161,1.6,3.1,81,0.04,,,4.61,WSDL version 420,2013-05-29 23:32:00,
2013-05-29 19:37:00,75.4,69.3,29.97,East,100,1.9,3.1,82,0.04,,,4.61,WSDL version 420,2013-05-29 23:37:00,
2013-05-29 19:42:00,75.2,69.4,29.97,SSW,194,1.4,3.1,82,0.04,,,4.61,WSDL version 420,2013-05-29 23:42:00,
2013-05-29 19:47:00,75.0,69.4,29.97,SSW,196,1.2,2.9,83,0.04,,,4.61,WSDL version 420,2013-05-29 23:47:00,
2013-05-29 19:52:00,75.0,69.5,29.97,SE,143,0.0,2.5,83,0.04,,,4.61,WSDL version 420,2013-05-29 23:52:00,
2013-05-29 19:57:00,74.9,69.5,29.97,East,90,0.0,0.9,83,0.04,,,4.61,WSDL version 420,2013-05-29 23:57:00,
2013-05-29 20:02:00,74.8,69.4,29.97,North,360,0.0,0.9,83,0.04,,,4.61,WSDL version 420,2013-05-30 00:02:00,
2013-05-29 20:07:00,74.6,69.2,29.97,NNE,13,0.0,0.0,83,0.04,,,4.61,WSDL version 420,2013-05-30 00:07:00,
2013-05-29 20:12:00,74.5,69.2,29.97,North,360,0.0,0.0,84,0.04,,,4.61,WSDL version 420,2013-05-30 00:12:00,
2013-05-29 20:17:00,74.3,69.4,29.97,NNE,13,0.0,3.4,84,0.00,,,4.61,WSDL version 420,2013-05-30 00:17:00,
2013-05-29 20:22:00,74.3,69.4,29.97,East,90,0.0,3.4,86,0.00,,,4.61,WSDL version 420,2013-05-30 00:22:00,
2013-05-29 20:27:00,74.3,69.7,29.97,North,8,0.0,2.7,86,0.00,,,4.61,WSDL version 420,2013-05-30 00:27:00,
2013-05-29 20:32:00,74.1,69.5,29.97,East,101,1.0,2.9,86,0.00,,,4.61,WSDL version 420,2013-05-30 00:32:00,
2013-05-29 20:37:00,74.3,70.0,29.97,ENE,75,2.6,7.2,87,0.00,,,4.61,WSDL version 420,2013-05-30 00:37:00,
2013-05-29 20:42:00,75.1,70.8,29.97,ENE,75,2.7,7.2,87,0.00,,,4.61,WSDL version 420,2013-05-30 00:42:00,
2013-05-29 20:47:00,75.5,70.9,29.97,NE,48,2.9,4.9,86,0.00,,,4.61,WSDL version 420,2013-05-30 00:47:00,
2013-05-29 20:52:00,75.8,70.5,29.97,East,95,3.4,5.4,82,0.00,,,4.61,WSDL version 420,2013-05-30 00:52:00,
2013-05-29 20:57:00,76.1,69.8,29.97,East,84,4.4,7.4,80,0.00,,,4.61,WSDL version 420,2013-05-30 00:57:00,
2013-05-29 21:02:00,76.3,69.5,30.00,ENE,74,3.6,7.4,79,0.00,,,4.61,WSDL version 420,2013-05-30 01:02:00,
2013-05-29 21:07:00,76.5,69.2,30.00,ENE,76,3.0,6.3,78,0.00,,,4.61,WSDL version 420,2013-05-30 01:07:00,
2013-05-29 21:12:00,76.5,69.1,29.94,NE,51,2.3,6.0,78,0.00,,,4.61,WSDL version 420,2013-05-30 01:12:00,
2013-05-29 21:17:00,76.6,69.1,29.94,ENE,68,1.8,6.0,78,0.00,,,4.61,WSDL version 420,2013-05-30 01:17:00,
2013-05-29 21:22:00,76.6,69.3,29.94,ENE,68,2.2,4.3,78,0.00,,,4.61,WSDL version 420,2013-05-30 01:22:00,
2013-05-29 21:27:00,76.6,69.2,29.94,ENE,71,1.9,3.8,78,0.00,,,4.61,WSDL version 420,2013-05-30 01:27:00,
2013-05-29 21:32:00,76.5,69.1,29.97,NE,51,1.8,4.0,78,0.00,,,4.61,WSDL version 420,2013-05-30 01:32:00,
2013-05-29 21:37:00,76.6,69.0,29.97,ENE,75,4.3,7.2,77,0.00,,,4.61,WSDL version 420,2013-05-30 01:37:00,
2013-05-29 21:42:00,76.8,68.7,29.97,East,79,3.6,7.2,76,0.00,,,4.61,WSDL version 420,2013-05-30 01:42:00,
2013-05-29 21:47:00,76.8,68.6,29.97,ENE,68,4.7,7.6,75,0.00,,,4.61,WSDL version 420,2013-05-30 01:47:00,
2013-05-29 21:52:00,77.0,68.5,29.97,ENE,68,4.1,7.6,75,0.00,,,4.61,WSDL version 420,2013-05-30 01:52:00,
2013-05-29 21:57:00,77.0,68.5,29.97,ENE,75,2.9,6.5,75,0.00,,,4.61,WSDL version 420,2013-05-30 01:57:00,
2013-05-29 22:02:00,77.0,68.5,29.97,ENE,65,3.7,6.0,75,0.00,,,4.61,WSDL version 420,2013-05-30 02:02:00,
2013-05-29 22:07:00,77.0,68.5,29.97,ENE,62,3.9,6.3,75,0.00,,,4.61,WSDL version 420,2013-05-30 02:07:00,
2013-05-29 22:12:00,77.1,68.6,29.97,East,94,2.9,6.3,75,0.00,,,4.61,WSDL version 420,2013-05-30 02:12:00,
2013-05-29 22:17:00,77.0,68.2,29.97,East,80,4.5,7.4,74,0.00,,,4.61,WSDL version 420,2013-05-30 02:17:00,
2013-05-29 22:22:00,77.0,68.1,29.97,East,100,3.6,7.6,74,0.00,,,4.61,WSDL version 420,2013-05-30 02:22:00,
2013-05-29 22:27:00,77.0,68.1,29.97,ENE,65,4.1,7.6,74,0.00,,,4.61,WSDL version 420,2013-05-30 02:27:00,
2013-05-29 22:32:00,76.9,68.0,29.97,ENE,71,2.4,6.3,74,0.00,,,4.61,WSDL version 420,2013-05-30 02:32:00,
2013-05-29 22:37:00,76.8,67.9,29.97,NE,55,3.3,6.0,74,0.00,,,4.61,WSDL version 420,2013-05-30 02:37:00,
2013-05-29 22:42:00,76.9,67.8,29.97,ENE,68,3.7,6.0,74,0.00,,,4.61,WSDL version 420,2013-05-30 02:42:00,
2013-05-29 22:47:00,76.8,67.9,29.97,East,80,2.4,5.6,74,0.00,,,4.61,WSDL version 420,2013-05-30 02:47:00,
2013-05-29 22:52:00,76.8,67.9,29.97,ENE,71,3.4,7.6,74,0.00,,,4.61,WSDL version 420,2013-05-30 02:52:00,
2013-05-29 22:57:00,76.8,67.9,29.97,East,90,3.2,7.6,74,0.00,,,4.61,WSDL version 420,2013-05-30 02:57:00,
2013-05-29 23:02:00,76.8,67.9,30.00,ENE,74,3.0,4.9,74,0.00,,,4.61,WSDL version 420,2013-05-30 03:02:00,
2013-05-29 23:07:00,76.7,67.8,30.00,East,79,2.7,4.9,74,0.00,,,4.61,WSDL version 420,2013-05-30 03:07:00,
2013-05-29 23:12:00,76.6,67.9,29.97,East,93,2.9,5.4,75,0.00,,,4.61,WSDL version 420,2013-05-30 03:12:00,
2013-05-29 23:17:00,76.6,68.1,29.97,ENE,71,3.0,5.4,75,0.00,,,4.61,WSDL version 420,2013-05-30 03:17:00,
2013-05-29 23:22:00,76.6,68.1,29.97,NE,51,3.2,5.4,75,0.00,,,4.61,WSDL version 420,2013-05-30 03:22:00,
2013-05-29 23:27:00,76.8,68.0,29.97,ENE,71,3.2,7.4,74,0.00,,,4.61,WSDL version 420,2013-05-30 03:27:00,
2013-05-29 23:32:00,76.8,67.9,30.00,East,79,3.7,7.4,74,0.00,,,4.61,WSDL version 420,2013-05-30 03:32:00,
2013-05-29 23:37:00,76.8,67.9,30.00,East,100,2.5,6.5,74,0.00,,,4.61,WSDL version 420,2013-05-30 03:37:00,
2013-05-29 23:42:00,76.8,67.9,29.97,East,90,2.9,4.9,74,0.00,,,4.61,WSDL version 420,2013-05-30 03:42:00,
2013-05-29 23:47:00,76.8,67.9,29.97,ENE,60,2.8,6.3,74,0.00,,,4.61,WSDL version 420,2013-05-30 03:47:00,
2013-05-29 23:52:00,76.8,67.9,29.97,NE,56,4.3,6.3,74,0.00,,,4.61,WSDL version 420,2013-05-30 03:52:00,
2013-05-29 23:57:00,76.8,68.1,29.97,ENE,75,2.1,6.0,74,0.00,,,4.61,WSDL version 420,2013-05-30 03:57:00,